createdAt,value
2019-04-10T00:00:10.567Z,971.94
2019-04-10T00:02:13.729Z,971.95
2019-04-10T00:03:25.888Z,971.92
2019-04-10T00:05:18.102Z,971.84
2019-04-10T00:06:18.657Z,971.87
2019-04-10T00:08:22.509Z,971.85
2019-04-10T00:09:23.185Z,971.86
2019-04-10T00:11:27.000Z,971.88
2019-04-10T00:12:27.143Z,971.87
2019-04-10T00:14:31.507Z,971.83
2019-04-10T00:15:32.610Z,971.78
2019-04-10T00:17:35.681Z,971.81
2019-04-10T00:18:35.972Z,971.81
2019-04-10T00:20:28.992Z,971.91
2019-04-10T00:21:29.287Z,971.91
2019-04-10T00:23:33.389Z,971.80
2019-04-10T00:24:33.623Z,971.88
2019-04-10T00:26:37.785Z,971.93
2019-04-10T00:27:38.865Z,971.99
2019-04-10T00:29:42.543Z,972.01
2019-04-10T00:30:43.055Z,972.02
2019-04-10T00:32:46.600Z,971.97
2019-04-10T00:33:47.220Z,972.04
2019-04-10T00:35:51.957Z,971.99
2019-04-10T00:36:51.440Z,972.05
2019-04-10T00:38:55.913Z,971.98
2019-04-10T00:39:55.610Z,972.01
2019-04-10T00:42:00.785Z,972.00
2019-04-10T00:43:00.292Z,972.04
2019-04-10T00:45:04.163Z,972.00
2019-04-10T00:46:04.404Z,971.96
2019-04-10T00:48:08.568Z,972.04
2019-04-10T00:49:09.254Z,972.03
2019-04-10T00:51:13.134Z,972.05
2019-04-10T00:52:14.213Z,971.95
2019-04-10T00:54:18.179Z,972.01
2019-04-10T00:55:17.606Z,971.98
2019-04-10T00:57:21.761Z,972.04
2019-04-10T00:58:22.508Z,972.06
2019-04-10T01:00:15.059Z,972.02
2019-04-10T01:01:15.970Z,972.00
2019-04-10T01:03:19.450Z,971.99
2019-04-10T01:04:20.350Z,971.97
2019-04-10T01:06:24.132Z,971.96
2019-04-10T01:07:35.962Z,972.01
2019-04-10T01:09:29.109Z,972.00
2019-04-10T01:10:28.542Z,971.95
2019-04-10T01:12:32.622Z,972.01
2019-04-10T01:13:32.855Z,971.98
2019-04-10T01:15:36.995Z,971.96
2019-04-10T01:16:37.717Z,971.95
2019-04-10T01:18:41.628Z,971.97
2019-04-10T01:19:41.849Z,971.87
2019-04-10T01:21:46.448Z,972.01
2019-04-10T01:22:46.002Z,971.97
2019-04-10T01:24:50.317Z,971.93
2019-04-10T01:25:50.595Z,971.97
2019-04-10T01:27:54.574Z,971.96
2019-04-10T01:28:55.600Z,971.92
2019-04-10T01:30:59.163Z,971.99
2019-04-10T01:31:59.539Z,971.95
2019-04-10T01:34:03.360Z,971.99
2019-04-10T01:35:03.580Z,972.00
2019-04-10T01:37:08.313Z,972.00
2019-04-10T01:38:07.971Z,972.03
2019-04-10T01:40:01.046Z,971.94
2019-04-10T01:41:01.538Z,972.04
2019-04-10T01:43:11.513Z,971.99
2019-04-10T01:44:05.745Z,972.02
2019-04-10T01:46:10.332Z,972.00
2019-04-10T01:47:10.887Z,972.00
2019-04-10T01:49:14.213Z,971.96
2019-04-10T01:50:14.571Z,971.92
2019-04-10T01:52:18.590Z,971.94
2019-04-10T01:53:19.685Z,971.99
2019-04-10T01:55:25.719Z,971.96
2019-04-10T01:56:29.439Z,971.92
2019-04-10T01:58:27.416Z,971.91
2019-04-10T01:59:27.618Z,971.91
2019-04-10T02:01:32.529Z,971.95
2019-04-10T02:02:31.994Z,971.88
2019-04-10T02:04:36.155Z,971.97
2019-04-10T02:05:36.627Z,971.82
2019-04-10T02:07:40.532Z,971.85
2019-04-10T02:08:40.763Z,971.87
2019-04-10T02:10:34.279Z,971.82
2019-04-10T02:11:34.288Z,971.77
2019-04-10T02:13:39.253Z,971.79
2019-04-10T02:14:38.649Z,971.80
2019-04-10T02:16:43.223Z,971.75
2019-04-10T02:17:42.869Z,971.73
2019-04-10T02:19:48.014Z,971.75
2019-04-10T02:20:47.416Z,971.74
2019-04-10T02:22:51.927Z,971.71
2019-04-10T02:23:52.396Z,971.58
2019-04-10T02:25:56.923Z,971.72
2019-04-10T02:26:56.148Z,971.68
2019-04-10T02:29:00.204Z,971.68
2019-04-10T02:30:00.439Z,971.65
2019-04-10T02:32:04.745Z,971.61
2019-04-10T02:33:06.098Z,971.63
2019-04-10T02:35:12.381Z,971.64
2019-04-10T02:36:10.763Z,971.62
2019-04-10T02:38:32.775Z,971.61
2019-04-10T02:39:24.410Z,971.63
2019-04-10T02:41:19.206Z,971.62
2019-04-10T02:42:18.636Z,971.65
2019-04-10T02:44:22.918Z,971.65
2019-04-10T02:45:23.801Z,971.67
2019-04-10T02:47:26.609Z,971.68
2019-04-10T02:48:27.554Z,971.61
2019-04-10T02:50:20.761Z,971.59
2019-04-10T02:51:20.163Z,971.58
2019-04-10T02:53:25.598Z,971.59
2019-04-10T02:54:25.140Z,971.64
2019-04-10T02:56:28.642Z,971.60
2019-04-10T02:57:29.433Z,971.58
2019-04-10T02:59:33.498Z,971.64
2019-04-10T03:00:33.855Z,971.66
2019-04-10T03:02:38.778Z,971.64
2019-04-10T03:03:38.438Z,971.65
2019-04-10T03:05:42.679Z,971.73
2019-04-10T03:06:42.793Z,971.72
2019-04-10T03:09:04.866Z,971.72
2019-04-10T03:10:00.893Z,971.72
2019-04-10T03:11:51.922Z,971.76
2019-04-10T03:12:52.429Z,971.81
2019-04-10T03:14:55.192Z,971.83
2019-04-10T03:15:55.893Z,971.79
2019-04-10T03:17:59.348Z,971.76
2019-04-10T03:18:59.625Z,971.77
2019-04-10T03:21:04.774Z,971.77
2019-04-10T03:22:03.979Z,971.75
2019-04-10T03:24:08.117Z,971.72
2019-04-10T03:25:08.907Z,971.67
2019-04-10T03:27:12.514Z,971.65
2019-04-10T03:28:12.749Z,971.66
2019-04-10T03:30:07.430Z,971.69
2019-04-10T03:31:07.930Z,971.70
2019-04-10T03:33:14.275Z,971.72
2019-04-10T03:34:13.113Z,971.72
2019-04-10T03:36:15.597Z,971.72
2019-04-10T03:37:14.842Z,971.73
2019-04-10T03:39:18.993Z,971.76
2019-04-10T03:40:19.572Z,971.77
2019-04-10T03:42:23.394Z,971.77
2019-04-10T03:43:23.719Z,971.79
2019-04-10T03:45:28.563Z,971.80
2019-04-10T03:46:28.033Z,971.78
2019-04-10T03:48:33.335Z,971.77
2019-04-10T03:49:32.408Z,971.77
2019-04-10T03:51:36.713Z,971.74
2019-04-10T03:52:37.823Z,971.76
2019-04-10T03:54:40.945Z,971.75
2019-04-10T03:55:41.177Z,971.73
2019-04-10T03:57:45.341Z,971.78
2019-04-10T03:58:45.575Z,971.71
2019-04-10T04:00:38.665Z,971.71
2019-04-10T04:01:38.974Z,971.77
2019-04-10T04:03:43.037Z,971.72
2019-04-10T04:04:43.858Z,971.76
2019-04-10T04:06:48.163Z,971.83
2019-04-10T04:07:48.501Z,971.84
2019-04-10T04:09:51.803Z,971.78
2019-04-10T04:10:53.065Z,971.81
2019-04-10T04:12:57.182Z,971.84
2019-04-10T04:13:56.437Z,971.83
2019-04-10T04:16:00.597Z,971.84
2019-04-10T04:17:01.807Z,971.84
2019-04-10T04:19:05.921Z,971.90
2019-04-10T04:20:05.205Z,971.90
2019-04-10T04:22:09.372Z,971.90
2019-04-10T04:23:09.659Z,971.90
2019-04-10T04:25:14.777Z,971.89
2019-04-10T04:26:14.811Z,971.82
2019-04-10T04:28:18.890Z,971.83
2019-04-10T04:29:18.547Z,971.81
2019-04-10T04:31:22.895Z,971.85
2019-04-10T04:32:23.754Z,971.88
2019-04-10T04:34:27.273Z,971.91
2019-04-10T04:35:27.758Z,971.88
2019-04-10T04:37:31.317Z,971.94
2019-04-10T04:38:32.283Z,971.94
2019-04-10T04:40:24.633Z,971.97
2019-04-10T04:41:25.338Z,971.95
2019-04-10T04:43:29.060Z,972.01
2019-04-10T04:44:29.311Z,971.99
2019-04-10T04:46:34.520Z,971.99
2019-04-10T04:47:33.706Z,972.01
2019-04-10T04:49:38.340Z,972.05
2019-04-10T04:50:38.576Z,972.03
2019-04-10T04:52:43.513Z,972.05
2019-04-10T04:53:44.011Z,972.08
2019-04-10T04:55:47.121Z,972.16
2019-04-10T04:56:48.320Z,972.19
2019-04-10T04:58:51.797Z,972.23
2019-04-10T04:59:52.679Z,972.23
2019-04-10T05:01:56.990Z,972.29
2019-04-10T05:02:56.160Z,972.31
2019-04-10T05:05:00.419Z,972.35
2019-04-10T05:06:00.542Z,972.34
2019-04-10T05:08:05.897Z,972.35
2019-04-10T05:09:04.940Z,972.39
2019-04-10T05:11:09.852Z,972.40
2019-04-10T05:12:09.400Z,972.38
2019-04-10T05:14:13.486Z,972.38
2019-04-10T05:15:13.724Z,972.42
2019-04-10T05:17:18.282Z,972.40
2019-04-10T05:18:19.066Z,972.44
2019-04-10T05:20:11.243Z,972.49
2019-04-10T05:21:11.434Z,972.53
2019-04-10T05:23:16.063Z,972.58
2019-04-10T05:24:15.884Z,972.60
2019-04-10T05:26:20.797Z,972.63
2019-04-10T05:27:20.216Z,972.66
2019-04-10T05:29:25.036Z,972.69
2019-04-10T05:30:25.073Z,972.70
2019-04-10T05:32:28.758Z,972.76
2019-04-10T05:33:28.991Z,972.78
2019-04-10T05:35:33.159Z,972.81
2019-04-10T05:36:33.571Z,972.80
2019-04-10T05:38:37.713Z,972.85
2019-04-10T05:39:43.169Z,972.86
2019-04-10T05:41:41.968Z,972.86
2019-04-10T05:42:42.172Z,972.86
2019-04-10T05:44:46.340Z,972.81
2019-04-10T05:45:46.582Z,972.84
2019-04-10T05:47:50.796Z,972.85
2019-04-10T05:48:50.955Z,972.83
2019-04-10T05:50:54.017Z,972.79
2019-04-10T05:51:44.283Z,972.82
2019-04-10T05:53:51.059Z,972.88
2019-04-10T05:54:49.352Z,972.87
2019-04-10T05:56:52.826Z,972.95
2019-04-10T05:57:53.187Z,972.98
2019-04-10T05:59:57.224Z,972.93
2019-04-10T06:00:57.460Z,972.92
2019-04-10T06:03:01.625Z,973.00
2019-04-10T06:04:03.014Z,972.95
2019-04-10T06:06:06.253Z,972.98
2019-04-10T06:07:06.304Z,972.95
2019-04-10T06:09:10.505Z,972.96
2019-04-10T06:10:10.890Z,973.03
2019-04-10T06:12:14.914Z,972.97
2019-04-10T06:13:15.158Z,972.97
2019-04-10T06:15:19.338Z,972.86
2019-04-10T06:16:19.647Z,972.89
2019-04-10T06:18:23.864Z,972.89
2019-04-10T06:19:25.337Z,972.92
2019-04-10T06:21:28.747Z,972.91
2019-04-10T06:22:28.507Z,972.84
2019-04-10T06:24:32.521Z,972.86
2019-04-10T06:25:34.105Z,972.85
2019-04-10T06:27:36.908Z,972.95
2019-04-10T06:28:38.010Z,972.94
2019-04-10T06:30:30.248Z,972.89
2019-04-10T06:31:30.531Z,972.94
2019-04-10T06:33:34.649Z,972.89
2019-04-10T06:34:34.891Z,972.84
2019-04-10T06:36:39.635Z,972.88
2019-04-10T06:37:40.084Z,972.87
2019-04-10T06:39:45.718Z,972.87
2019-04-10T06:40:44.063Z,972.84
2019-04-10T06:42:52.043Z,972.87
2019-04-10T06:43:48.149Z,972.87
2019-04-10T06:45:52.435Z,972.91
2019-04-10T06:46:52.899Z,972.97
2019-04-10T06:48:56.781Z,972.94
2019-04-10T06:49:57.032Z,972.94
2019-04-10T06:52:02.172Z,972.97
2019-04-10T06:53:02.420Z,973.00
2019-04-10T06:55:06.595Z,972.89
2019-04-10T06:56:06.998Z,972.92
2019-04-10T06:58:11.662Z,972.91
2019-04-10T06:59:12.170Z,972.89
2019-04-10T07:01:16.577Z,972.91
2019-04-10T07:02:23.737Z,972.69
2019-04-10T07:04:23.865Z,972.83
2019-04-10T07:05:20.143Z,972.85
2019-04-10T07:07:30.820Z,972.89
2019-04-10T07:08:26.016Z,972.96
2019-04-10T07:10:25.887Z,972.93
2019-04-10T07:11:19.910Z,972.90
2019-04-10T07:13:22.009Z,973.06
2019-04-10T07:14:22.561Z,972.94
2019-04-10T07:16:29.732Z,972.95
2019-04-10T07:17:27.125Z,972.89
2019-04-10T07:19:30.904Z,972.95
2019-04-10T07:20:31.613Z,972.95
2019-04-10T07:22:35.296Z,973.05
2019-04-10T07:23:36.486Z,973.15
2019-04-10T07:25:42.465Z,973.07
2019-04-10T07:26:43.432Z,973.01
2019-04-10T07:28:46.385Z,973.10
2019-04-10T07:29:44.644Z,973.18
2019-04-10T07:31:50.795Z,973.08
2019-04-10T07:32:50.809Z,973.07
2019-04-10T07:34:59.199Z,973.24
2019-04-10T07:35:56.503Z,973.27
2019-04-10T07:37:59.589Z,973.50
2019-04-10T07:38:59.212Z,973.35
2019-04-10T07:41:06.288Z,973.12
2019-04-10T07:42:04.142Z,972.97
2019-04-10T07:44:08.040Z,973.50
2019-04-10T07:45:07.573Z,973.39
2019-04-10T07:47:11.783Z,973.45
2019-04-10T07:48:12.862Z,973.44
2019-04-10T07:50:08.147Z,973.43
2019-04-10T07:51:05.419Z,973.25
2019-04-10T07:53:10.460Z,973.60
2019-04-10T07:54:09.833Z,973.64
2019-04-10T07:56:18.011Z,973.63
2019-04-10T07:57:14.266Z,973.68
2019-04-10T07:59:20.368Z,973.60
2019-04-10T08:00:20.141Z,973.64
2019-04-10T08:02:25.507Z,973.83
2019-04-10T08:03:25.230Z,974.08
2019-04-10T08:05:29.613Z,974.70
2019-04-10T08:06:29.562Z,974.64
2019-04-10T08:08:34.015Z,974.23
2019-04-10T08:09:33.981Z,974.04
2019-04-10T08:11:38.243Z,974.05
2019-04-10T08:12:46.020Z,974.20
2019-04-10T08:14:42.608Z,973.98
2019-04-10T08:15:43.311Z,974.19
2019-04-10T08:17:50.534Z,974.22
2019-04-10T08:18:47.792Z,974.11
2019-04-10T08:20:40.357Z,974.07
2019-04-10T08:21:40.601Z,973.88
2019-04-10T08:23:44.779Z,974.11
2019-04-10T08:24:47.181Z,974.36
2019-04-10T08:26:49.297Z,974.22
2019-04-10T08:27:50.114Z,974.17
2019-04-10T08:29:54.727Z,974.16
2019-04-10T08:30:54.656Z,974.30
2019-04-10T08:33:01.284Z,974.55
2019-04-10T08:33:59.029Z,974.42
2019-04-10T08:36:03.237Z,974.39
2019-04-10T08:37:03.747Z,974.73
2019-04-10T08:39:06.893Z,974.64
2019-04-10T08:40:07.492Z,974.62
2019-04-10T08:42:11.301Z,974.65
2019-04-10T08:43:11.786Z,974.86
2019-04-10T08:45:16.747Z,975.13
2019-04-10T08:46:15.940Z,975.20
2019-04-10T08:48:20.119Z,975.12
2019-04-10T08:49:21.353Z,975.06
2019-04-10T08:51:25.529Z,975.18
2019-04-10T08:52:24.765Z,975.27
2019-04-10T08:54:28.994Z,975.49
2019-04-10T08:55:30.245Z,975.47
2019-04-10T08:57:34.197Z,975.42
2019-04-10T08:58:33.623Z,975.31
2019-04-10T09:00:26.879Z,975.27
2019-04-10T09:01:26.957Z,975.16
2019-04-10T09:03:31.140Z,975.04
2019-04-10T09:04:31.383Z,975.00
2019-04-10T09:06:35.643Z,975.02
2019-04-10T09:07:35.972Z,975.06
2019-04-10T09:09:39.994Z,975.08
2019-04-10T09:10:40.660Z,974.90
2019-04-10T09:12:45.095Z,974.97
2019-04-10T09:13:44.702Z,974.74
2019-04-10T09:15:49.903Z,974.58
2019-04-10T09:16:49.115Z,974.71
2019-04-10T09:18:53.823Z,974.59
2019-04-10T09:19:54.062Z,974.60
2019-04-10T09:21:57.721Z,974.81
2019-04-10T09:23:15.553Z,974.86
2019-04-10T09:25:02.838Z,975.02
2019-04-10T09:26:02.389Z,975.12
2019-04-10T09:28:06.573Z,974.84
2019-04-10T09:29:06.840Z,974.67
2019-04-10T09:31:10.983Z,974.45
2019-04-10T09:32:11.277Z,974.37
2019-04-10T09:34:15.835Z,974.34
2019-04-10T09:35:16.356Z,974.13
2019-04-10T09:37:19.909Z,974.15
2019-04-10T09:38:20.966Z,974.10
2019-04-10T09:40:14.071Z,974.20
2019-04-10T09:41:14.006Z,974.22
2019-04-10T09:43:17.794Z,974.80
2019-04-10T09:44:18.652Z,974.84
2019-04-10T09:46:22.004Z,974.59
2019-04-10T09:47:22.774Z,974.61
2019-04-10T09:49:37.702Z,974.74
2019-04-10T09:50:27.571Z,974.89
2019-04-10T09:52:31.993Z,974.99
2019-04-10T09:53:31.097Z,975.03
2019-04-10T09:55:36.246Z,974.87
2019-04-10T09:56:36.394Z,974.86
2019-04-10T09:58:40.701Z,974.83
2019-04-10T09:59:41.296Z,974.74
2019-04-10T10:01:45.105Z,974.59
2019-04-10T10:02:45.352Z,974.51
2019-04-10T10:04:50.446Z,974.41
2019-04-10T10:05:50.925Z,974.64
2019-04-10T10:07:56.090Z,974.55
2019-04-10T10:08:54.379Z,974.64
2019-04-10T10:10:58.383Z,974.64
2019-04-10T10:11:58.911Z,974.86
2019-04-10T10:14:04.011Z,974.92
2019-04-10T10:15:03.058Z,974.95
2019-04-10T10:17:07.222Z,975.06
2019-04-10T10:18:07.467Z,975.36
2019-04-10T10:20:01.699Z,975.39
2019-04-10T10:21:01.866Z,975.45
2019-04-10T10:23:05.426Z,975.39
2019-04-10T10:24:05.267Z,975.34
2019-04-10T10:26:09.994Z,974.86
2019-04-10T10:27:09.694Z,975.32
2019-04-10T10:29:13.917Z,975.50
2019-04-10T10:30:14.194Z,975.55
2019-04-10T10:32:19.206Z,975.58
2019-04-10T10:33:18.608Z,975.45
2019-04-10T10:35:23.125Z,975.65
2019-04-10T10:36:34.667Z,975.55
2019-04-10T10:38:27.443Z,975.43
2019-04-10T10:39:28.581Z,975.30
2019-04-10T10:41:31.974Z,975.33
2019-04-10T10:42:32.084Z,975.31
2019-04-10T10:44:36.312Z,974.87
2019-04-10T10:45:36.739Z,974.66
2019-04-10T10:47:40.740Z,975.53
2019-04-10T10:48:41.852Z,975.52
2019-04-10T10:50:34.193Z,974.67
2019-04-10T10:51:35.039Z,974.44
2019-04-10T10:53:38.659Z,974.25
2019-04-10T10:54:38.992Z,974.53
2019-04-10T10:56:43.001Z,974.93
2019-04-10T10:57:43.608Z,974.31
2019-04-10T10:59:47.432Z,974.85
2019-04-10T11:00:47.675Z,975.07
2019-04-10T11:02:51.965Z,974.75
2019-04-10T11:03:52.079Z,974.61
2019-04-10T11:05:56.259Z,974.35
2019-04-10T11:06:59.959Z,974.48
2019-04-10T11:09:01.863Z,974.36
2019-04-10T11:10:01.289Z,974.50
2019-04-10T11:12:06.548Z,974.60
2019-04-10T11:13:06.477Z,974.82
2019-04-10T11:15:10.110Z,975.07
2019-04-10T11:16:09.760Z,975.01
2019-04-10T11:18:13.928Z,974.81
2019-04-10T11:19:15.261Z,974.74
2019-04-10T11:21:18.352Z,974.28
2019-04-10T11:22:22.629Z,974.30
2019-04-10T11:24:22.881Z,974.28
2019-04-10T11:25:23.785Z,974.38
2019-04-10T11:27:28.052Z,974.05
2019-04-10T11:28:30.273Z,974.33
2019-04-10T11:30:20.669Z,974.47
2019-04-10T11:31:21.133Z,974.42
2019-04-10T11:33:25.089Z,974.27
2019-04-10T11:34:26.408Z,974.12
2019-04-10T11:36:30.006Z,974.18
2019-04-10T11:37:37.462Z,974.27
2019-04-10T11:39:37.306Z,974.39
2019-04-10T11:40:34.449Z,974.29
2019-04-10T11:42:40.077Z,974.39
2019-04-10T11:43:38.452Z,974.29
2019-04-10T11:45:46.547Z,974.34
2019-04-10T11:46:43.848Z,974.43
2019-04-10T11:48:47.060Z,974.39
2019-04-10T11:49:48.909Z,974.45
2019-04-10T11:51:53.641Z,974.52
2019-04-10T11:52:53.362Z,974.47
2019-04-10T11:55:06.032Z,974.41
2019-04-10T11:55:59.166Z,974.33
2019-04-10T11:58:00.295Z,974.39
2019-04-10T11:59:01.658Z,974.53
2019-04-10T12:01:08.501Z,974.54
2019-04-10T12:04:10.772Z,974.60
2019-04-10T12:05:13.783Z,974.57
2019-04-10T12:07:49.165Z,974.39
2019-04-10T12:08:40.175Z,974.39
2019-04-10T12:11:10.961Z,974.40
2019-04-10T12:13:12.342Z,974.63
2019-04-10T12:14:11.569Z,974.69
2019-04-10T12:16:16.740Z,974.53
2019-04-10T12:17:16.103Z,974.64
2019-04-10T12:19:22.396Z,974.54
2019-04-10T12:20:20.859Z,974.56
2019-04-10T12:22:24.602Z,974.73
2019-04-10T12:23:25.138Z,974.60
2019-04-10T12:25:29.126Z,974.49
2019-04-10T12:26:29.263Z,974.39
2019-04-10T12:28:33.903Z,974.36
2019-04-10T12:29:33.701Z,974.32
2019-04-10T12:31:37.870Z,974.34
2019-04-10T12:32:38.985Z,974.29
2019-04-10T12:34:42.487Z,974.23
2019-04-10T12:35:42.552Z,974.24
2019-04-10T12:37:57.288Z,974.27
2019-04-10T12:38:47.792Z,974.47
2019-04-10T12:40:40.563Z,974.49
2019-04-10T12:41:41.540Z,974.36
2019-04-10T12:43:45.164Z,974.52
2019-04-10T12:44:44.845Z,974.37
2019-04-10T12:46:49.185Z,974.41
2019-04-10T12:47:50.252Z,974.42
2019-04-10T12:49:53.982Z,974.53
2019-04-10T12:50:55.074Z,974.45
2019-04-10T12:52:58.847Z,974.56
2019-04-10T12:53:58.372Z,974.52
2019-04-10T12:56:02.480Z,974.45
2019-04-10T12:57:02.729Z,974.41
2019-04-10T12:59:07.005Z,974.41
2019-04-10T13:00:07.250Z,974.63
2019-04-10T13:02:12.345Z,974.51
2019-04-10T13:03:11.684Z,974.41
2019-04-10T13:05:16.735Z,974.38
2019-04-10T13:06:16.117Z,974.35
2019-04-10T13:08:22.440Z,974.44
2019-04-10T13:09:20.589Z,974.45
2019-04-10T13:11:24.779Z,974.39
2019-04-10T13:12:25.103Z,974.40
2019-04-10T13:14:29.186Z,974.35
2019-04-10T13:15:29.746Z,974.39
2019-04-10T13:17:33.639Z,974.39
2019-04-10T13:18:33.884Z,974.45
2019-04-10T13:20:27.037Z,974.35
2019-04-10T13:21:28.422Z,974.31
2019-04-10T13:23:31.507Z,974.25
2019-04-10T13:24:31.748Z,974.27
2019-04-10T13:26:35.934Z,974.40
2019-04-10T13:27:36.914Z,974.38
2019-04-10T13:29:40.544Z,974.34
2019-04-10T13:30:48.931Z,974.42
2019-04-10T13:32:44.823Z,974.32
2019-04-10T13:33:45.071Z,974.32
2019-04-10T13:35:49.233Z,974.33
2019-04-10T13:36:49.474Z,974.36
2019-04-10T13:38:54.726Z,974.34
2019-04-10T13:39:53.894Z,974.38
2019-04-10T13:41:58.827Z,974.37
2019-04-10T13:42:58.317Z,974.38
2019-04-10T13:45:02.853Z,974.51
2019-04-10T13:46:02.716Z,974.54
2019-04-10T13:48:08.075Z,974.61
2019-04-10T13:49:07.136Z,974.49
2019-04-10T13:51:11.296Z,974.56
2019-04-10T13:52:11.986Z,974.70
2019-04-10T13:54:16.525Z,974.56
2019-04-10T13:55:16.892Z,974.57
2019-04-10T13:57:20.248Z,974.57
2019-04-10T13:58:21.326Z,974.57
2019-04-10T14:00:13.482Z,974.46
2019-04-10T14:01:13.729Z,974.54
2019-04-10T14:03:19.200Z,974.55
2019-04-10T14:04:18.766Z,974.55
2019-04-10T14:06:22.315Z,974.63
2019-04-10T14:07:22.559Z,974.57
2019-04-10T14:09:35.741Z,974.47
2019-04-10T14:10:28.064Z,974.52
2019-04-10T14:12:31.256Z,974.55
2019-04-10T14:13:31.729Z,974.61
2019-04-10T14:15:35.879Z,974.50
2019-04-10T14:16:36.986Z,974.46
2019-04-10T14:18:41.029Z,974.45
2019-04-10T14:19:40.249Z,974.42
2019-04-10T14:21:45.035Z,974.44
2019-04-10T14:22:44.652Z,974.42
2019-04-10T14:24:49.794Z,974.34
2019-04-10T14:25:49.783Z,974.33
2019-04-10T14:27:54.332Z,974.53
2019-04-10T14:28:53.590Z,974.52
2019-04-10T14:30:47.326Z,974.46
2019-04-10T14:31:46.970Z,974.52
2019-04-10T14:33:51.020Z,974.57
2019-04-10T14:34:51.251Z,974.51
2019-04-10T14:36:55.418Z,974.60
2019-04-10T14:37:56.813Z,974.61
2019-04-10T14:39:59.942Z,974.63
2019-04-10T14:41:01.097Z,974.54
2019-04-10T14:43:05.266Z,974.66
2019-04-10T14:44:04.530Z,974.71
2019-04-10T14:46:08.698Z,974.59
2019-04-10T14:47:08.935Z,974.62
2019-04-10T14:49:13.213Z,974.60
2019-04-10T14:50:13.687Z,974.58
2019-04-10T14:52:17.531Z,974.57
2019-04-10T14:53:17.775Z,974.67
2019-04-10T14:55:22.111Z,974.72
2019-04-10T14:56:22.209Z,974.72
2019-04-10T14:58:28.147Z,974.72
2019-04-10T14:59:26.633Z,974.71
2019-04-10T15:01:30.794Z,974.64
2019-04-10T15:02:31.037Z,974.73
2019-04-10T15:04:35.332Z,974.82
2019-04-10T15:05:44.692Z,974.73
2019-04-10T15:07:39.628Z,974.74
2019-04-10T15:08:39.872Z,974.66
2019-04-10T15:10:32.980Z,974.67
2019-04-10T15:11:33.224Z,974.71
2019-04-10T15:13:38.075Z,974.77
2019-04-10T15:14:37.655Z,974.72
2019-04-10T15:16:52.471Z,974.69
2019-04-10T15:17:42.236Z,974.73
2019-04-10T15:19:46.917Z,974.71
2019-04-10T15:20:47.255Z,974.72
2019-04-10T15:22:50.657Z,974.84
2019-04-10T15:23:51.128Z,974.88
2019-04-10T15:25:55.473Z,974.90
2019-04-10T15:26:55.608Z,974.88
2019-04-10T15:29:00.286Z,974.86
2019-04-10T15:29:59.937Z,974.89
2019-04-10T15:32:04.259Z,974.91
2019-04-10T15:33:04.520Z,974.85
2019-04-10T15:35:08.408Z,974.89
2019-04-10T15:36:09.442Z,974.85
2019-04-10T15:38:13.742Z,974.81
2019-04-10T15:39:12.979Z,974.85
2019-04-10T15:41:17.159Z,974.84
2019-04-10T15:42:17.401Z,974.83
2019-04-10T15:44:21.851Z,974.73
2019-04-10T15:45:21.849Z,974.77
2019-04-10T15:47:27.026Z,974.80
2019-04-10T15:48:27.174Z,974.83
2019-04-10T15:50:19.366Z,974.82
2019-04-10T15:51:20.395Z,974.75
2019-04-10T15:53:24.412Z,974.87
2019-04-10T15:54:23.987Z,974.87
2019-04-10T15:56:28.166Z,974.90
2019-04-10T15:57:28.944Z,974.90
2019-04-10T15:59:32.582Z,974.67
2019-04-10T16:00:33.042Z,974.65
2019-04-10T16:02:36.983Z,974.74
2019-04-10T16:03:37.225Z,974.81
2019-04-10T16:05:41.832Z,974.89
2019-04-10T16:06:41.845Z,974.90
2019-04-10T16:08:45.810Z,974.87
2019-04-10T16:09:51.641Z,974.84
2019-04-10T16:11:50.262Z,974.77
2019-04-10T16:12:50.475Z,974.85
2019-04-10T16:14:54.906Z,974.82
2019-04-10T16:15:54.892Z,974.74
2019-04-10T16:17:59.049Z,974.85
2019-04-10T16:18:59.327Z,974.72
2019-04-10T16:21:04.127Z,974.84
2019-04-10T16:22:03.696Z,974.79
2019-04-10T16:24:08.770Z,974.78
2019-04-10T16:25:08.096Z,974.78
2019-04-10T16:27:12.267Z,974.90
2019-04-10T16:28:12.640Z,974.91
2019-04-10T16:30:06.015Z,974.84
2019-04-10T16:31:05.912Z,974.89
2019-04-10T16:33:11.197Z,974.90
2019-04-10T16:34:10.315Z,974.87
2019-04-10T16:36:14.489Z,974.89
2019-04-10T16:37:14.740Z,974.82
2019-04-10T16:39:19.687Z,974.88
2019-04-10T16:40:19.170Z,974.90
2019-04-10T16:42:24.461Z,974.77
2019-04-10T16:43:24.386Z,974.92
2019-04-10T16:45:28.663Z,974.78
2019-04-10T16:46:28.028Z,975.00
2019-04-10T16:48:32.177Z,974.97
2019-04-10T16:49:32.939Z,974.92
2019-04-10T16:51:36.655Z,975.05
2019-04-10T16:52:36.923Z,974.96
2019-04-10T16:54:41.104Z,974.97
2019-04-10T16:55:41.354Z,975.04
2019-04-10T16:57:45.539Z,975.05
2019-04-10T16:58:45.812Z,974.98
2019-04-10T17:00:39.738Z,975.07
2019-04-10T17:01:39.274Z,975.07
2019-04-10T17:03:44.205Z,975.08
2019-04-10T17:04:43.799Z,975.05
2019-04-10T17:06:47.910Z,975.00
2019-04-10T17:07:48.151Z,975.04
2019-04-10T17:09:53.245Z,974.95
2019-04-10T17:10:52.564Z,975.14
2019-04-10T17:12:56.719Z,975.12
2019-04-10T17:13:57.238Z,975.06
2019-04-10T17:16:01.725Z,975.13
2019-04-10T17:17:02.116Z,975.15
2019-04-10T17:19:05.715Z,975.11
2019-04-10T17:20:07.025Z,975.12
2019-04-10T17:22:11.016Z,975.15
2019-04-10T17:23:10.308Z,975.15
2019-04-10T17:25:14.710Z,975.17
2019-04-10T17:26:14.971Z,975.17
2019-04-10T17:28:21.670Z,975.19
2019-04-10T17:29:19.175Z,975.21
2019-04-10T17:31:24.526Z,975.11
2019-04-10T17:32:23.611Z,975.16
2019-04-10T17:34:27.786Z,975.21
2019-04-10T17:35:28.021Z,975.22
2019-04-10T17:37:32.189Z,975.22
2019-04-10T17:38:32.426Z,975.24
2019-04-10T17:40:33.867Z,975.19
2019-04-10T17:41:26.107Z,975.24
2019-04-10T17:43:30.236Z,975.26
2019-04-10T17:44:31.621Z,975.30
2019-04-10T17:46:35.304Z,975.31
2019-04-10T17:47:34.878Z,975.37
2019-04-10T17:49:39.368Z,975.34
2019-04-10T17:50:39.637Z,975.40
2019-04-10T17:52:45.022Z,975.37
2019-04-10T17:53:45.286Z,975.34
2019-04-10T17:55:47.899Z,975.41
2019-04-10T17:56:48.523Z,975.43
2019-04-10T17:58:52.436Z,975.49
2019-04-10T17:59:52.771Z,975.49
2019-04-10T18:01:56.993Z,975.52
2019-04-10T18:02:57.259Z,975.49
2019-04-10T18:05:02.371Z,975.48
2019-04-10T18:06:01.555Z,975.50
2019-04-10T18:08:05.722Z,975.57
2019-04-10T18:09:05.954Z,975.58
2019-04-10T18:11:10.101Z,975.62
2019-04-10T18:12:10.337Z,975.60
2019-04-10T18:14:15.310Z,975.61
2019-04-10T18:15:15.736Z,975.62
2019-04-10T18:17:18.930Z,975.70
2019-04-10T18:18:19.849Z,975.69
2019-04-10T18:20:12.224Z,975.74
2019-04-10T18:21:12.689Z,975.74
2019-04-10T18:23:17.560Z,975.73
2019-04-10T18:24:16.960Z,975.78
2019-04-10T18:26:21.146Z,975.77
2019-04-10T18:27:22.477Z,975.79
2019-04-10T18:29:25.562Z,975.80
2019-04-10T18:30:25.965Z,975.77
2019-04-10T18:32:29.916Z,975.84
2019-04-10T18:33:30.917Z,975.82
2019-04-10T18:35:35.261Z,975.92
2019-04-10T18:36:34.569Z,975.87
2019-04-10T18:38:38.717Z,975.93
2019-04-10T18:39:38.951Z,975.92
2019-04-10T18:41:43.096Z,975.97
2019-04-10T18:42:43.468Z,975.93
2019-04-10T18:44:47.498Z,975.96
2019-04-10T18:45:59.598Z,976.00
2019-04-10T18:47:52.326Z,976.02
2019-04-10T18:48:52.155Z,976.02
2019-04-10T18:50:45.467Z,976.06
2019-04-10T18:51:45.903Z,976.03
2019-04-10T18:53:49.766Z,976.12
2019-04-10T18:54:50.037Z,976.07
2019-04-10T18:56:54.115Z,976.12
2019-04-10T18:57:54.933Z,976.09
2019-04-10T18:59:58.815Z,976.10
2019-04-10T19:00:58.837Z,976.11
2019-04-10T19:03:03.410Z,976.12
2019-04-10T19:04:04.401Z,976.08
2019-04-10T19:06:07.936Z,976.13
2019-04-10T19:07:07.537Z,976.14